Time;durP1;ratioP1;P1;durP2;ratioP2;P2;SDS_P1;SDS_P2;PMS_P1;PMS_P2;Temp;Humidity;BMP_temperature;BMP_pressure;BME280_temperature;BME280_humidity;BME280_pressure;Samples;Min_cycle;Max_cycle;Signal;HPM_P1;HPM_P2
2021/01/03 00:00:22;;;;;;;17.30;14.93;;;5.70;56.30;;;;;;5066702;28;20295;-66
2021/01/03 00:02:49;;;;;;;18.87;14.47;;;5.60;56.20;;;;;;5067161;28;20318;-66
2021/01/03 00:05:19;;;;;;;18.70;14.73;;;5.70;56.30;;;;;;5064328;28;20217;-65
2021/01/03 00:07:46;;;;;;;17.57;14.33;;;5.70;56.30;;;;;;5066545;28;20630;-65
2021/01/03 00:10:14;;;;;;;18.10;14.83;;;5.70;56.20;;;;;;5066279;28;20711;-65
2021/01/03 00:12:41;;;;;;;17.37;14.07;;;5.70;56.20;;;;;;5065697;28;20226;-65
2021/01/03 00:15:12;;;;;;;17.53;14.07;;;5.70;56.20;;;;;;5066735;28;20734;-65
2021/01/03 00:17:39;;;;;;;17.17;13.87;;;5.70;56.10;;;;;;5066560;28;20212;-66
2021/01/03 00:20:09;;;;;;;14.83;13.27;;;5.70;56.00;;;;;;5067421;28;20705;-66
2021/01/03 00:22:36;;;;;;;15.37;13.70;;;5.70;56.00;;;;;;5066679;28;20201;-66
2021/01/03 00:25:03;;;;;;;16.83;13.90;;;5.70;56.00;;;;;;5066193;28;20256;-65
2021/01/03 00:27:31;;;;;;;15.93;13.30;;;5.60;56.10;;;;;;5066880;28;20232;-67
2021/01/03 00:29:57;;;;;;;15.73;13.37;;;5.60;56.10;;;;;;5067649;28;20973;-65
2021/01/03 00:32:23;;;;;;;18.27;14.73;;;5.60;56.10;;;;;;5063953;28;20232;-65
2021/01/03 00:34:50;;;;;;;16.47;13.37;;;5.60;56.20;;;;;;5064005;28;20229;-65
2021/01/03 00:37:21;;;;;;;17.37;13.57;;;5.70;56.20;;;;;;5065264;28;20216;-64
2021/01/03 00:39:49;;;;;;;16.30;14.40;;;5.60;56.20;;;;;;5066041;28;20215;-64
2021/01/03 00:42:15;;;;;;;16.70;13.87;;;5.60;56.10;;;;;;5064459;28;20247;-66
2021/01/03 00:44:43;;;;;;;15.03;13.20;;;5.60;56.10;;;;;;5064137;28;20228;-65
2021/01/03 00:47:10;;;;;;;16.43;14.03;;;5.60;56.10;;;;;;5064181;28;20630;-66
2021/01/03 00:49:37;;;;;;;17.23;14.37;;;5.60;56.70;;;;;;5064744;28;20216;-66
2021/01/03 00:52:04;;;;;;;18.43;14.63;;;5.60;56.10;;;;;;5064449;28;20233;-66
2021/01/03 00:54:30;;;;;;;18.20;14.20;;;5.60;56.20;;;;;;5064893;28;20232;-65
2021/01/03 00:56:57;;;;;;;17.80;14.87;;;5.60;56.30;;;;;;5064267;28;20274;-65
2021/01/03 00:59:23;;;;;;;18.07;14.30;;;5.50;56.30;;;;;;5063673;28;20714;-66
2021/01/03 01:01:50;;;;;;;16.63;14.43;;;5.60;56.40;;;;;;5063317;28;20208;-66
2021/01/03 01:04:17;;;;;;;18.17;14.03;;;5.60;56.60;;;;;;5062591;28;20232;-65
2021/01/03 01:06:43;;;;;;;18.50;14.40;;;5.60;56.60;;;;;;5065342;28;20205;-65
2021/01/03 01:09:10;;;;;;;15.97;13.00;;;5.60;56.70;;;;;;5062247;28;21355;-66
2021/01/03 01:11:39;;;;;;;18.20;13.53;;;5.60;56.60;;;;;;5064449;28;20225;-66
2021/01/03 01:14:06;;;;;;;16.07;12.80;;;5.60;57.40;;;;;;5063365;28;20221;-66
2021/01/03 01:16:34;;;;;;;17.73;13.30;;;5.60;56.70;;;;;;5063984;28;20212;-66
2021/01/03 01:19:01;;;;;;;17.40;13.50;;;5.60;56.90;;;;;;5065468;28;20209;-65
2021/01/03 01:21:28;;;;;;;17.80;13.33;;;5.60;57.00;;;;;;5064046;28;20240;-65
2021/01/03 01:23:54;;;;;;;17.90;14.53;;;5.60;57.00;;;;;;5063539;28;20349;-66
2021/01/03 01:26:22;;;;;;;17.70;14.63;;;5.60;57.00;;;;;;5062598;28;20669;-65
2021/01/03 01:28:48;;;;;;;16.83;13.53;;;5.60;57.00;;;;;;5063075;28;20221;-66
2021/01/03 01:31:14;;;;;;;16.20;13.13;;;5.60;57.00;;;;;;5063513;28;20213;-65
2021/01/03 01:33:41;;;;;;;17.00;13.40;;;5.60;57.10;;;;;;5064665;28;20196;-66
2021/01/03 01:36:09;;;;;;;16.80;14.07;;;5.60;57.20;;;;;;5061734;28;20209;-65
2021/01/03 01:38:35;;;;;;;17.33;13.40;;;5.60;57.30;;;;;;5065337;28;20197;-65
2021/01/03 01:41:02;;;;;;;18.80;14.23;;;5.60;57.30;;;;;;5062919;28;20214;-65
2021/01/03 01:43:29;;;;;;;16.73;13.93;;;5.70;57.40;;;;;;5064088;28;20292;-66
2021/01/03 01:45:55;;;;;;;14.93;13.33;;;5.60;57.30;;;;;;5056250;28;20693;-65
2021/01/03 01:48:28;;;;;;;19.03;14.27;;;5.70;57.40;;;;;;5062842;28;20205;-65
2021/01/03 01:51:03;;;;;;;17.40;13.60;;;5.70;57.50;;;;;;5063551;28;20197;-65
2021/01/03 01:53:44;;;;;;;16.77;13.33;;;5.70;57.60;;;;;;5065011;28;20292;-65
2021/01/03 01:56:22;;;;;;;15.80;12.23;;;5.70;57.60;;;;;;5063301;28;20256;-65
2021/01/03 01:58:56;;;;;;;14.73;11.97;;;5.70;58.20;;;;;;5062462;28;20214;-66
2021/01/03 02:01:31;;;;;;;15.03;12.17;;;5.70;57.60;;;;;;5062742;28;20200;-66
2021/01/03 02:04:11;;;;;;;16.60;12.53;;;5.70;57.80;;;;;;5064216;28;20298;-66
2021/01/03 02:06:44;;;;;;;14.83;11.67;;;5.70;57.80;;;;;;5064072;28;20201;-65
2021/01/03 02:09:20;;;;;;;14.63;11.63;;;5.70;57.80;;;;;;5068456;28;20266;-65
2021/01/03 02:11:46;;;;;;;14.43;11.27;;;5.80;58.00;;;;;;5067245;28;20713;-65
2021/01/03 02:14:14;;;;;;;14.13;11.50;;;5.70;57.80;;;;;;5067353;28;20254;-65
2021/01/03 02:16:40;;;;;;;14.57;11.63;;;5.80;58.00;;;;;;5066291;28;20670;-65
2021/01/03 02:19:20;;;;;;;15.40;12.93;;;5.80;57.90;;;;;;5065644;28;20201;-66
2021/01/03 02:21:56;;;;;;;16.77;12.63;;;5.80;57.90;;;;;;5065472;28;20208;-66
2021/01/03 02:24:31;;;;;;;13.97;11.47;;;5.80;57.90;;;;;;5070592;28;20224;-66
2021/01/03 02:27:07;;;;;;;14.30;11.07;;;5.70;57.90;;;;;;5071929;28;20756;-66
2021/01/03 02:29:37;;;;;;;16.00;13.10;;;5.70;58.10;;;;;;5067539;28;20223;-66
2021/01/03 02:32:06;;;;;;;15.47;12.07;;;5.70;58.10;;;;;;5063397;28;20228;-65
2021/01/03 02:34:37;;;;;;;14.77;11.87;;;5.80;58.30;;;;;;5066396;28;20228;-66
2021/01/03 02:37:09;;;;;;;14.47;11.30;;;5.70;58.30;;;;;;5067006;28;20216;-65
2021/01/03 02:39:49;;;;;;;12.63;10.60;;;5.70;58.30;;;;;;5066629;28;20220;-66
2021/01/03 02:42:21;;;;;;;15.37;11.80;;;5.80;58.40;;;;;;5067986;28;20201;-65
2021/01/03 02:44:47;;;;;;;14.30;11.97;;;5.80;58.30;;;;;;5068809;28;20232;-66
2021/01/03 02:47:14;;;;;;;14.93;12.40;;;5.80;58.20;;;;;;5065973;28;20262;-65
2021/01/03 02:49:40;;;;;;;16.83;12.90;;;5.80;58.20;;;;;;5067416;28;20216;-65
2021/01/03 02:52:13;;;;;;;16.10;12.67;;;5.80;58.70;;;;;;5065728;28;20225;-66
2021/01/03 02:54:39;;;;;;;16.30;12.93;;;5.80;58.10;;;;;;5068430;28;20237;-65
2021/01/03 02:57:06;;;;;;;13.23;11.63;;;5.80;58.00;;;;;;5067926;28;20308;-66
2021/01/03 02:59:33;;;;;;;17.87;13.37;;;5.80;58.00;;;;;;5066175;28;20242;-66
2021/01/03 03:01:59;;;;;;;14.60;12.90;;;5.80;58.10;;;;;;5065794;28;20212;-65
2021/01/03 03:04:26;;;;;;;17.00;12.90;;;5.80;58.10;;;;;;5067688;28;20216;-66
2021/01/03 03:06:52;;;;;;;15.80;12.97;;;5.80;58.10;;;;;;5068008;28;20205;-65
2021/01/03 03:09:18;;;;;;;14.27;12.37;;;5.80;58.10;;;;;;5067216;28;20216;-65
2021/01/03 03:11:46;;;;;;;18.07;13.77;;;5.80;58.00;;;;;;5064794;28;20239;-66
2021/01/03 03:14:13;;;;;;;15.47;12.93;;;5.80;58.00;;;;;;5066761;28;20225;-65
2021/01/03 03:16:41;;;;;;;17.60;13.47;;;5.80;58.00;;;;;;5068251;28;20212;-66
2021/01/03 03:19:07;;;;;;;17.03;12.90;;;5.80;58.00;;;;;;5065904;28;20223;-65
2021/01/03 03:21:34;;;;;;;17.77;14.63;;;5.90;58.10;;;;;;5065123;28;20729;-66
2021/01/03 03:24:00;;;;;;;16.67;13.20;;;5.90;58.00;;;;;;5066422;28;20756;-65
2021/01/03 03:26:27;;;;;;;15.97;13.43;;;5.90;58.00;;;;;;5066508;28;20235;-66
2021/01/03 03:28:53;;;;;;;17.57;12.73;;;5.90;58.00;;;;;;5066275;28;20219;-66
2021/01/03 03:31:26;;;;;;;15.57;13.10;;;5.90;58.10;;;;;;5064100;28;20311;-65
2021/01/03 03:33:54;;;;;;;16.97;13.70;;;5.90;58.20;;;;;;5066476;28;20229;-66
2021/01/03 03:36:20;;;;;;;17.97;13.43;;;5.90;58.10;;;;;;5066633;28;20247;-66
2021/01/03 03:38:47;;;;;;;16.70;13.17;;;5.90;58.00;;;;;;5066535;28;20213;-66
2021/01/03 03:41:24;;;;;;;17.03;12.93;;;5.90;58.00;;;;;;5064838;28;20240;-66
2021/01/03 03:43:50;;;;;;;17.07;13.37;;;5.90;58.00;;;;;;5066858;28;20314;-65
2021/01/03 03:46:17;;;;;;;16.97;12.63;;;5.90;58.00;;;;;;5064639;28;20651;-65
2021/01/03 03:48:44;;;;;;;15.93;12.80;;;5.90;57.90;;;;;;5065806;28;20205;-65
2021/01/03 03:51:16;;;;;;;15.67;11.93;;;5.90;57.90;;;;;;5065365;28;20204;-65
2021/01/03 03:53:43;;;;;;;15.40;11.80;;;5.90;57.90;;;;;;5065691;28;20270;-66
2021/01/03 03:56:10;;;;;;;14.60;11.30;;;5.90;57.80;;;;;;5065395;28;20216;-65
2021/01/03 03:58:37;;;;;;;14.50;11.77;;;5.90;57.80;;;;;;5065023;28;20204;-66
2021/01/03 04:01:03;;;;;;;15.63;11.23;;;6.00;57.80;;;;;;5066363;28;20208;-65
2021/01/03 04:03:30;;;;;;;14.30;11.57;;;6.00;57.90;;;;;;5064979;28;20213;-65
2021/01/03 04:05:56;;;;;;;15.50;12.17;;;6.00;57.90;;;;;;5065580;28;20213;-66
2021/01/03 04:08:24;;;;;;;16.27;12.93;;;6.00;57.90;;;;;;5065163;28;20201;-65
2021/01/03 04:10:51;;;;;;;15.70;11.57;;;6.00;57.80;;;;;;5064271;28;20228;-66
2021/01/03 04:13:17;;;;;;;15.43;12.13;;;6.00;57.80;;;;;;5062849;28;21302;-66
2021/01/03 04:15:44;;;;;;;14.73;11.40;;;6.00;57.70;;;;;;5066634;28;20278;-66
2021/01/03 04:18:11;;;;;;;13.13;10.90;;;6.00;57.60;;;;;;5066388;28;20201;-65
2021/01/03 04:20:38;;;;;;;15.00;12.20;;;6.00;57.70;;;;;;5065929;28;20205;-66
2021/01/03 04:23:05;;;;;;;15.43;12.53;;;6.00;57.60;;;;;;5063130;28;20197;-65
2021/01/03 04:25:33;;;;;;;16.73;12.17;;;6.00;57.60;;;;;;5064884;28;20709;-65
2021/01/03 04:28:00;;;;;;;17.23;12.53;;;6.10;57.70;;;;;;5065598;28;20209;-65
2021/01/03 04:30:27;;;;;;;16.97;13.17;;;6.10;57.60;;;;;;5062848;28;20213;-65
2021/01/03 04:32:54;;;;;;;16.20;12.83;;;6.00;57.50;;;;;;5063537;28;20243;-65
2021/01/03 04:35:22;;;;;;;16.63;12.43;;;6.00;57.40;;;;;;5065910;28;20217;-66
2021/01/03 04:37:51;;;;;;;14.93;11.73;;;6.00;57.40;;;;;;5063468;28;20320;-66
2021/01/03 04:40:22;;;;;;;15.13;11.73;;;6.00;57.40;;;;;;5064733;28;20321;-66
2021/01/03 04:42:56;;;;;;;17.30;11.93;;;6.00;57.50;;;;;;5064501;28;20731;-66
2021/01/03 04:45:30;;;;;;;16.53;12.07;;;6.00;57.50;;;;;;5067066;28;20229;-67
2021/01/03 04:48:01;;;;;;;15.57;11.57;;;6.00;57.50;;;;;;5065017;28;20201;-66
2021/01/03 04:51:06;;;;;;;15.53;12.30;;;6.10;57.50;;;;;;5063512;28;20213;-65
2021/01/03 04:53:49;;;;;;;18.30;11.17;;;6.10;57.40;;;;;;5064215;28;20228;-65
2021/01/03 04:56:24;;;;;;;16.03;11.63;;;6.10;57.30;;;;;;5066219;28;20201;-66
2021/01/03 04:59:16;;;;;;;16.03;12.33;;;6.10;57.30;;;;;;5065076;28;20215;-65
2021/01/03 05:02:23;;;;;;;15.27;11.70;;;6.10;57.30;;;;;;5063419;28;20666;-66
2021/01/03 05:05:07;;;;;;;11.90;10.10;;;6.10;57.30;;;;;;5063742;28;20232;-65
2021/01/03 05:07:41;;;;;;;13.40;11.10;;;6.10;57.20;;;;;;5060809;28;20227;-66
2021/01/03 05:10:18;;;;;;;13.10;10.97;;;6.20;57.30;;;;;;5063398;28;20200;-66
2021/01/03 05:13:03;;;;;;;15.77;11.70;;;6.20;57.20;;;;;;5062702;28;20311;-66
2021/01/03 05:15:34;;;;;;;14.93;11.67;;;6.20;57.20;;;;;;5065748;28;20221;-66
2021/01/03 05:18:03;;;;;;;15.63;11.40;;;6.20;57.20;;;;;;5064998;28;20201;-66
2021/01/03 05:20:29;;;;;;;14.67;11.90;;;6.20;57.20;;;;;;5064318;28;20209;-65
2021/01/03 05:23:14;;;;;;;16.40;12.57;;;6.20;57.20;;;;;;5063985;28;20200;-67
2021/01/03 05:25:42;;;;;;;14.37;11.63;;;6.20;57.20;;;;;;5064073;28;20229;-67
2021/01/03 05:28:17;;;;;;;15.97;12.47;;;6.20;57.10;;;;;;5064979;28;20209;-66
2021/01/03 05:30:45;;;;;;;16.43;13.40;;;6.20;57.10;;;;;;5063447;28;20297;-66
2021/01/03 05:33:16;;;;;;;16.60;12.57;;;6.30;57.10;;;;;;5065765;28;20236;-65
2021/01/03 05:35:45;;;;;;;15.70;12.63;;;6.20;57.00;;;;;;5064749;28;20649;-66
2021/01/03 05:38:34;;;;;;;15.90;12.83;;;6.30;57.10;;;;;;5064111;28;20205;-66
2021/01/03 05:41:14;;;;;;;16.53;13.17;;;6.30;57.10;;;;;;5062268;28;20205;-66
2021/01/03 05:43:41;;;;;;;16.63;13.10;;;6.20;57.00;;;;;;5063266;28;20203;-65
2021/01/03 05:46:23;;;;;;;17.07;13.23;;;6.30;57.00;;;;;;5064603;28;20202;-65
2021/01/03 05:49:01;;;;;;;15.47;13.13;;;6.20;57.00;;;;;;5064798;28;20204;-66
2021/01/03 05:51:39;;;;;;;19.80;14.10;;;6.30;57.00;;;;;;5063528;28;20714;-66
2021/01/03 05:54:12;;;;;;;17.20;13.60;;;6.30;57.00;;;;;;5062206;28;20700;-65
2021/01/03 05:56:40;;;;;;;17.40;13.53;;;6.30;57.00;;;;;;5064637;28;20224;-66
2021/01/03 05:59:07;;;;;;;16.70;13.50;;;6.30;57.10;;;;;;5065697;28;20562;-66
2021/01/03 06:01:36;;;;;;;17.10;13.80;;;6.30;57.00;;;;;;5062858;28;20212;-66
2021/01/03 06:04:10;;;;;;;18.07;14.50;;;6.30;57.10;;;;;;5063843;28;20233;-66
2021/01/03 06:07:03;;;;;;;19.33;14.67;;;6.30;57.10;;;;;;5063374;28;20212;-66
2021/01/03 06:09:38;;;;;;;16.87;13.93;;;6.20;57.00;;;;;;5060443;28;20704;-66
2021/01/03 06:12:14;;;;;;;19.53;14.30;;;6.30;56.90;;;;;;5060752;28;20228;-66
2021/01/03 06:14:41;;;;;;;19.37;14.37;;;6.30;56.90;;;;;;5065068;28;20235;-65
2021/01/03 06:17:34;;;;;;;18.10;14.33;;;6.30;56.90;;;;;;5062126;28;20204;-66
2021/01/03 06:20:14;;;;;;;18.60;13.70;;;6.30;57.00;;;;;;5062908;28;20374;-66
2021/01/03 06:22:49;;;;;;;15.87;12.73;;;6.30;57.00;;;;;;5065836;28;20209;-66
2021/01/03 06:25:31;;;;;;;17.67;13.67;;;6.30;57.00;;;;;;5065688;28;20220;-65
2021/01/03 06:28:06;;;;;;;18.87;14.23;;;6.30;57.00;;;;;;5065157;28;20294;-65
2021/01/03 06:30:34;;;;;;;16.40;13.17;;;6.30;57.00;;;;;;5063044;28;20213;-65
2021/01/03 06:33:48;;;;;;;17.73;13.77;;;6.30;57.00;;;;;;5064707;28;20225;-66
2021/01/03 06:36:20;;;;;;;17.80;13.10;;;6.30;57.00;;;;;;5063565;28;20201;-66
2021/01/03 06:39:09;;;;;;;17.53;13.47;;;6.30;56.90;;;;;;5063787;28;20236;-65
2021/01/03 06:41:48;;;;;;;18.67;13.93;;;6.30;57.00;;;;;;5061741;28;20209;-66
2021/01/03 06:44:53;;;;;;;17.33;13.47;;;6.30;56.90;;;;;;5064674;28;20232;-65
2021/01/03 06:48:17;;;;;;;14.93;12.97;;;6.30;56.90;;;;;;5063133;28;20212;-64
2021/01/03 06:51:33;;;;;;;16.10;12.37;;;6.30;56.80;;;;;;5063691;28;20312;-65
2021/01/03 06:54:33;;;;;;;15.23;13.17;;;6.30;56.80;;;;;;5007532;28;20254;-65
2021/01/03 06:57:33;;;;;;;15.93;12.13;;;6.30;56.80;;;;;;5065168;28;20712;-65
2021/01/03 07:00:18;;;;;;;17.30;13.17;;;6.30;56.80;;;;;;5068086;28;20224;-65
2021/01/03 07:02:52;;;;;;;15.43;13.27;;;6.30;56.70;;;;;;5067844;28;20193;-64
2021/01/03 07:05:21;;;;;;;16.93;13.90;;;6.30;56.70;;;;;;5068356;28;20232;-64
2021/01/03 07:07:59;;;;;;;16.60;13.50;;;6.30;56.60;;;;;;5068078;28;20205;-65
2021/01/03 07:10:39;;;;;;;15.27;13.40;;;6.30;56.60;;;;;;5066618;28;20216;-64
2021/01/03 07:13:37;;;;;;;17.07;13.90;;;6.30;56.70;;;;;;5065976;28;20284;-64
2021/01/03 07:16:09;;;;;;;16.80;13.07;;;6.30;56.70;;;;;;5065818;28;20332;-64
2021/01/03 07:18:48;;;;;;;15.23;13.13;;;6.30;56.80;;;;;;5068767;28;20197;-64
2021/01/03 07:21:36;;;;;;;16.40;13.03;;;6.30;56.70;;;;;;5066536;28;20229;-65
2021/01/03 07:24:35;;;;;;;15.77;13.00;;;6.30;56.70;;;;;;5067663;28;20225;-65
2021/01/03 07:27:31;;;;;;;15.37;12.60;;;6.30;56.70;;;;;;5068798;28;20213;-65
2021/01/03 07:30:29;;;;;;;16.73;13.27;;;6.40;56.70;;;;;;5068104;28;20213;-64
2021/01/03 07:33:15;;;;;;;14.10;12.33;;;6.40;56.70;;;;;;5063547;28;20295;-64
2021/01/03 07:35:42;;;;;;;15.80;12.47;;;6.40;56.70;;;;;;5066553;28;20228;-65
2021/01/03 07:38:29;;;;;;;14.67;12.90;;;6.40;56.70;;;;;;5068658;28;20201;-67
2021/01/03 07:41:05;;;;;;;16.53;13.77;;;6.40;56.60;;;;;;5064881;28;20330;-65
2021/01/03 07:43:58;;;;;;;14.13;12.23;;;6.40;56.60;;;;;;5067026;28;20287;-65
2021/01/03 07:46:53;;;;;;;17.03;13.43;;;6.40;56.60;;;;;;5065798;28;20559;-65
2021/01/03 07:49:34;;;;;;;15.40;12.33;;;6.40;56.60;;;;;;5066541;28;20266;-66
2021/01/03 07:52:23;;;;;;;15.27;12.77;;;6.40;56.60;;;;;;5065144;28;20689;-65
2021/01/03 07:54:53;;;;;;;14.00;11.77;;;6.40;56.60;;;;;;5065845;28;20232;-65
2021/01/03 07:57:26;;;;;;;15.37;12.70;;;6.50;56.50;;;;;;5066681;28;20209;-65
2021/01/03 07:59:53;;;;;;;13.67;12.10;;;6.40;56.40;;;;;;5068217;28;20204;-65
2021/01/03 08:02:25;;;;;;;15.27;12.33;;;6.50;56.40;;;;;;5063567;28;20283;-65
2021/01/03 08:04:54;;;;;;;15.23;12.53;;;6.50;56.40;;;;;;5066945;28;20241;-64
2021/01/03 08:07:22;;;;;;;16.43;13.30;;;6.50;56.40;;;;;;5067132;28;20209;-65
2021/01/03 08:09:48;;;;;;;17.40;13.27;;;6.50;56.30;;;;;;5068082;28;20553;-65
2021/01/03 08:12:23;;;;;;;15.50;12.30;;;6.50;56.30;;;;;;5065956;28;20232;-66
2021/01/03 08:15:00;;;;;;;15.07;12.73;;;6.50;56.30;;;;;;5066107;28;20227;-65
2021/01/03 08:17:35;;;;;;;15.53;12.70;;;6.50;56.30;;;;;;5066148;28;20200;-65
2021/01/03 08:20:06;;;;;;;16.80;12.53;;;6.50;56.30;;;;;;5065411;28;20275;-64
2021/01/03 08:22:33;;;;;;;14.40;12.77;;;6.60;56.30;;;;;;5064253;28;20201;-65
2021/01/03 08:25:03;;;;;;;15.00;12.63;;;6.60;56.20;;;;;;5066130;28;20232;-64
2021/01/03 08:27:41;;;;;;;13.63;11.53;;;6.60;56.20;;;;;;5067075;28;20204;-65
2021/01/03 08:30:14;;;;;;;15.33;12.10;;;6.60;56.20;;;;;;5064996;28;20201;-66
2021/01/03 08:32:42;;;;;;;14.37;12.27;;;6.60;56.20;;;;;;5065660;28;20229;-65
2021/01/03 08:35:13;;;;;;;12.93;11.37;;;6.60;56.20;;;;;;5067769;28;20228;-65
2021/01/03 08:37:44;;;;;;;15.67;12.63;;;6.60;56.10;;;;;;5065219;28;20205;-65
2021/01/03 08:40:20;;;;;;;14.33;12.23;;;6.60;56.10;;;;;;5064949;28;20270;-65
2021/01/03 08:42:56;;;;;;;13.73;11.80;;;6.60;56.10;;;;;;5067163;28;20214;-65
2021/01/03 08:45:32;;;;;;;13.70;12.13;;;6.70;56.00;;;;;;5067942;28;20228;-65
2021/01/03 08:48:05;;;;;;;13.20;11.80;;;6.70;55.90;;;;;;5064026;28;20956;-65
2021/01/03 08:50:38;;;;;;;14.90;12.17;;;6.70;55.90;;;;;;5067559;28;20201;-64
2021/01/03 08:53:07;;;;;;;14.77;11.53;;;6.70;55.90;;;;;;5068581;28;20275;-65
2021/01/03 08:55:37;;;;;;;14.87;12.40;;;6.70;55.90;;;;;;5065718;28;20785;-65
2021/01/03 08:58:10;;;;;;;14.00;11.30;;;6.80;55.80;;;;;;5066908;28;20209;-65
2021/01/03 09:00:41;;;;;;;14.43;12.13;;;6.80;55.80;;;;;;5067419;28;20231;-65
2021/01/03 09:03:16;;;;;;;13.53;11.63;;;6.80;55.80;;;;;;5067459;28;20205;-65
2021/01/03 09:05:46;;;;;;;14.73;12.07;;;6.80;55.80;;;;;;5069131;28;20213;-65
2021/01/03 09:08:24;;;;;;;14.73;12.47;;;6.90;55.80;;;;;;5064737;28;20310;-65
2021/01/03 09:10:52;;;;;;;15.27;12.67;;;6.90;55.80;;;;;;5066010;28;20674;-65
2021/01/03 09:13:26;;;;;;;16.53;13.27;;;6.90;55.80;;;;;;5065399;28;20221;-66
2021/01/03 09:16:23;;;;;;;14.90;12.77;;;6.90;55.50;;;;;;5064310;28;20216;-66
2021/01/03 09:19:09;;;;;;;13.10;11.60;;;6.90;55.30;;;;;;5065067;28;20251;-68
2021/01/03 09:21:48;;;;;;;13.53;12.03;;;7.00;55.50;;;;;;5065017;28;20714;-65
2021/01/03 09:24:23;;;;;;;14.17;11.37;;;7.00;55.40;;;;;;5065589;28;20224;-65
2021/01/03 09:26:50;;;;;;;13.87;11.83;;;7.00;55.40;;;;;;5067316;28;20193;-65
2021/01/03 09:29:24;;;;;;;13.60;12.20;;;7.00;55.50;;;;;;5065417;28;20197;-65
2021/01/03 09:32:01;;;;;;;14.57;12.60;;;7.00;55.50;;;;;;5064209;28;20315;-65
2021/01/03 09:34:42;;;;;;;14.70;12.83;;;7.10;55.50;;;;;;5065174;28;20705;-66
2021/01/03 09:37:21;;;;;;;13.50;12.10;;;7.10;55.40;;;;;;5065915;28;20231;-65
2021/01/03 09:40:25;;;;;;;13.33;11.87;;;7.20;55.40;;;;;;5064144;28;20247;-65
2021/01/03 09:43:11;;;;;;;13.87;12.23;;;7.20;55.20;;;;;;5034706;28;20212;-65
2021/01/03 09:46:01;;;;;;;14.43;12.47;;;7.20;55.30;;;;;;5063248;28;20724;-65
2021/01/03 09:48:33;;;;;;;14.27;11.73;;;7.20;55.30;;;;;;5066745;28;20267;-64
2021/01/03 09:51:33;;;;;;;13.93;12.43;;;7.30;55.20;;;;;;5064579;28;20270;-66
2021/01/03 09:54:21;;;;;;;13.53;12.10;;;7.30;55.40;;;;;;5065007;28;20790;-65
2021/01/03 09:56:52;;;;;;;15.40;11.80;;;7.30;55.00;;;;;;5066820;28;20553;-65
2021/01/03 09:59:21;;;;;;;14.83;12.40;;;7.30;55.10;;;;;;5067937;28;20296;-65
2021/01/03 10:01:52;;;;;;;13.63;11.57;;;7.30;55.10;;;;;;5069023;28;20230;-65
2021/01/03 10:04:24;;;;;;;13.87;12.43;;;7.40;55.10;;;;;;5069584;28;20272;-65
2021/01/03 10:06:55;;;;;;;14.57;12.93;;;7.40;55.10;;;;;;5069159;28;20209;-65
2021/01/03 10:09:34;;;;;;;14.40;12.60;;;7.40;55.00;;;;;;5070623;28;20233;-64
2021/01/03 10:12:25;;;;;;;15.45;12.90;;;7.40;54.90;;;;;;5069396;28;20200;-65
2021/01/03 10:15:13;;;;;;;13.90;12.40;;;7.40;54.80;;;;;;5068659;28;20783;-64
2021/01/03 10:17:56;;;;;;;13.30;11.27;;;7.40;54.90;;;;;;5063623;28;20197;-65
2021/01/03 10:20:39;;;;;;;14.17;11.27;;;7.50;55.00;;;;;;5065754;28;20263;-65
2021/01/03 10:23:09;;;;;;;15.23;12.20;;;7.50;55.00;;;;;;5068190;28;20232;-65
2021/01/03 10:25:35;;;;;;;14.27;12.27;;;7.50;55.00;;;;;;5069530;28;20228;-65
2021/01/03 10:28:11;;;;;;;14.23;12.57;;;7.50;54.90;;;;;;5067882;28;20219;-65
2021/01/03 10:30:38;;;;;;;13.40;11.70;;;7.50;54.90;;;;;;5070138;28;20201;-66
2021/01/03 10:33:06;;;;;;;15.50;12.83;;;7.50;54.80;;;;;;5070589;28;20224;-66
2021/01/03 10:35:33;;;;;;;14.17;12.43;;;7.50;54.80;;;;;;5070612;28;20229;-66
2021/01/03 10:38:01;;;;;;;14.67;11.83;;;7.50;54.80;;;;;;5068281;28;20602;-66
2021/01/03 10:40:27;;;;;;;13.47;11.93;;;7.50;54.80;;;;;;5069319;28;20220;-66
2021/01/03 10:42:54;;;;;;;15.37;12.57;;;7.50;54.70;;;;;;5066334;28;20303;-65
2021/01/03 10:45:22;;;;;;;13.93;12.13;;;7.50;54.80;;;;;;5069771;28;20217;-65
2021/01/03 10:47:49;;;;;;;15.10;12.20;;;7.50;54.80;;;;;;5068495;28;20201;-65
2021/01/03 10:50:19;;;;;;;14.27;12.03;;;7.50;54.80;;;;;;5067309;28;20213;-65
2021/01/03 10:52:46;;;;;;;13.93;12.13;;;7.50;54.70;;;;;;5067019;28;20681;-65
2021/01/03 10:55:14;;;;;;;14.03;12.07;;;7.50;54.70;;;;;;5065898;28;20236;-65
2021/01/03 10:57:40;;;;;;;12.33;11.03;;;7.50;54.70;;;;;;5065101;28;20209;-65
2021/01/03 11:00:09;;;;;;;13.57;11.83;;;7.50;54.60;;;;;;5066030;28;20297;-65
2021/01/03 11:02:36;;;;;;;13.03;11.33;;;7.60;54.70;;;;;;5066246;28;20201;-65
2021/01/03 11:05:03;;;;;;;13.87;12.30;;;7.60;54.70;;;;;;5069246;28;20225;-65
2021/01/03 11:07:30;;;;;;;14.13;12.27;;;7.60;54.70;;;;;;5065591;28;20255;-65
2021/01/03 11:09:57;;;;;;;15.40;11.57;;;7.60;54.60;;;;;;5062964;28;20216;-65
2021/01/03 11:12:24;;;;;;;13.33;11.70;;;7.60;54.50;;;;;;5066500;28;20586;-67
2021/01/03 11:14:50;;;;;;;13.40;12.00;;;7.60;54.60;;;;;;5065247;28;20225;-66
2021/01/03 11:17:17;;;;;;;13.77;12.03;;;7.60;54.50;;;;;;5066944;28;20255;-66
2021/01/03 11:19:45;;;;;;;14.37;12.20;;;7.70;54.60;;;;;;5066188;28;20206;-66
2021/01/03 11:22:14;;;;;;;13.33;11.50;;;7.70;54.60;;;;;;5068961;28;20220;-67
2021/01/03 11:24:44;;;;;;;13.03;11.50;;;7.70;54.60;;;;;;5067986;28;20232;-67
2021/01/03 11:27:14;;;;;;;13.23;11.83;;;7.80;54.60;;;;;;5064572;28;20266;-64
2021/01/03 11:29:41;;;;;;;12.77;11.10;;;7.80;54.50;;;;;;5065161;28;20208;-65
2021/01/03 11:32:12;;;;;;;12.37;11.07;;;7.90;54.50;;;;;;5063919;28;20214;-67
2021/01/03 11:34:39;;;;;;;12.87;11.30;;;7.90;54.40;;;;;;5065822;28;20220;-66
2021/01/03 11:37:08;;;;;;;11.97;10.77;;;8.00;54.30;;;;;;5063541;28;20205;-66
2021/01/03 11:39:36;;;;;;;13.27;11.67;;;8.00;54.30;;;;;;5066104;28;20208;-65
2021/01/03 11:42:08;;;;;;;13.23;11.47;;;8.00;54.20;;;;;;5067271;28;20213;-65
2021/01/03 11:44:35;;;;;;;13.80;11.87;;;8.10;54.10;;;;;;5066377;28;20263;-65
2021/01/03 11:47:06;;;;;;;12.80;11.27;;;8.10;54.10;;;;;;5063569;28;20229;-65
2021/01/03 11:49:33;;;;;;;13.83;11.33;;;8.10;53.90;;;;;;5065600;28;20581;-65
2021/01/03 11:52:01;;;;;;;12.80;11.50;;;8.10;53.90;;;;;;5062656;28;20205;-65
2021/01/03 11:54:28;;;;;;;13.97;11.47;;;8.20;53.80;;;;;;5065900;28;20237;-65
2021/01/03 11:56:55;;;;;;;12.33;11.03;;;8.20;53.80;;;;;;5064338;28;20247;-65
2021/01/03 11:59:24;;;;;;;11.60;10.40;;;8.20;53.80;;;;;;5064134;28;20205;-65
2021/01/03 12:01:57;;;;;;;11.63;10.47;;;8.20;53.80;;;;;;5064618;28;20263;-66
2021/01/03 12:04:23;;;;;;;12.57;11.23;;;8.20;53.60;;;;;;5066497;28;20229;-65
2021/01/03 12:06:55;;;;;;;13.97;12.00;;;8.30;53.80;;;;;;5065199;28;20708;-66
2021/01/03 12:09:21;;;;;;;12.50;10.77;;;8.30;53.60;;;;;;5065516;28;20205;-65
2021/01/03 12:11:52;;;;;;;14.17;12.40;;;8.30;53.60;;;;;;5062348;28;20209;-65
2021/01/03 12:14:19;;;;;;;12.53;11.23;;;8.30;53.50;;;;;;5066871;28;20233;-65
2021/01/03 12:16:52;;;;;;;12.97;11.13;;;8.30;53.50;;;;;;5065128;28;20231;-65
2021/01/03 12:19:19;;;;;;;12.30;10.90;;;8.30;53.50;;;;;;5066679;28;20586;-65
2021/01/03 12:21:45;;;;;;;11.47;9.97;;;8.30;53.40;;;;;;5061751;28;20689;-64
2021/01/03 12:24:12;;;;;;;10.53;9.53;;;8.30;53.30;;;;;;5065557;28;20236;-65
2021/01/03 12:26:42;;;;;;;11.37;10.27;;;8.40;53.30;;;;;;5064056;28;20215;-66
2021/01/03 12:29:10;;;;;;;10.07;9.00;;;8.30;53.20;;;;;;5064904;28;20213;-65
2021/01/03 12:31:40;;;;;;;10.67;9.50;;;8.40;53.20;;;;;;5063805;28;20294;-65
2021/01/03 12:34:09;;;;;;;11.43;10.23;;;8.40;53.00;;;;;;5061576;28;20228;-65
2021/01/03 12:36:36;;;;;;;11.57;10.37;;;8.40;53.00;;;;;;5064969;28;20212;-66
2021/01/03 12:39:05;;;;;;;11.77;10.07;;;8.40;53.00;;;;;;5062669;28;20228;-66
2021/01/03 12:41:32;;;;;;;11.57;10.37;;;8.40;53.00;;;;;;5063843;28;20213;-66
2021/01/03 12:43:59;;;;;;;11.37;10.17;;;8.40;53.00;;;;;;5064516;28;20231;-65
2021/01/03 12:46:27;;;;;;;10.10;9.10;;;8.40;53.00;;;;;;5067231;28;20577;-64
2021/01/03 12:48:54;;;;;;;10.70;9.60;;;8.40;53.00;;;;;;5066227;28;20209;-65
2021/01/03 12:51:22;;;;;;;8.53;7.73;;;8.40;52.90;;;;;;5064023;28;20231;-65
2021/01/03 12:53:48;;;;;;;7.17;6.20;;;8.40;52.80;;;;;;5065133;28;20228;-65
2021/01/03 12:56:17;;;;;;;7.47;6.70;;;8.40;52.70;;;;;;5065437;28;20284;-65
2021/01/03 12:58:44;;;;;;;7.47;6.37;;;8.40;52.60;;;;;;5065003;28;20216;-66
2021/01/03 13:01:10;;;;;;;7.40;6.70;;;8.40;52.60;;;;;;5064463;28;20206;-66
2021/01/03 13:03:37;;;;;;;8.50;7.70;;;8.40;52.50;;;;;;5062658;28;20231;-66
2021/01/03 13:06:04;;;;;;;9.80;8.80;;;8.40;52.50;;;;;;5063285;28;20734;-66